createdAt,value
2019-03-31T20:03:44.191Z,42.56
2019-03-31T20:04:57.801Z,42.28
2019-03-31T20:06:08.293Z,42.37
2019-03-31T20:07:19.047Z,42.47
2019-03-31T20:08:28.971Z,42.18
2019-03-31T20:10:55.428Z,42.28
2019-03-31T20:13:19.263Z,42.56
2019-03-31T20:17:02.235Z,42.47
2019-03-31T20:19:29.738Z,42.47
2019-03-31T20:20:43.575Z,42.47
2019-03-31T20:21:53.781Z,42.37
2019-03-31T20:23:03.742Z,42.47
2019-03-31T20:24:14.882Z,42.47
2019-03-31T20:25:27.493Z,42.28
2019-03-31T20:26:38.771Z,42.76
2019-03-31T20:27:48.948Z,42.56
2019-03-31T20:29:02.379Z,42.64
2019-03-31T20:30:12.543Z,42.54
2019-03-31T20:31:22.767Z,42.92
2019-03-31T20:32:32.916Z,42.92
2019-03-31T20:33:43.076Z,43.3
2019-03-31T20:34:53.306Z,43.02
2019-03-31T20:36:03.479Z,42.83
2019-03-31T20:37:13.653Z,42.83
2019-03-31T20:38:23.852Z,43.02
2019-03-31T20:39:34.046Z,42.92
2019-03-31T20:40:58.964Z,43.21
2019-03-31T20:42:09.198Z,43.49
2019-03-31T20:43:19.359Z,43.49
2019-03-31T20:44:29.561Z,43.49
2019-03-31T20:45:39.829Z,43.21
2019-03-31T20:46:50.074Z,43.3
2019-03-31T20:48:00.236Z,43.11
2019-03-31T20:49:10.450Z,43.49
2019-03-31T20:50:20.620Z,43.4
2019-03-31T20:51:30.793Z,43.87
2019-03-31T20:52:41.000Z,43.78
2019-03-31T20:53:51.195Z,43.68
2019-03-31T20:55:15.292Z,43.59
2019-03-31T20:56:25.818Z,43.97
2019-03-31T20:57:36.011Z,44.06
2019-03-31T20:58:46.243Z,43.97
2019-03-31T20:59:56.408Z,43.97
2019-03-31T21:01:09.897Z,43.87
2019-03-31T21:02:20.251Z,43.68
2019-03-31T21:03:30.462Z,43.78
2019-03-31T21:04:40.607Z,43.68
2019-03-31T21:05:50.753Z,43.87
2019-03-31T21:07:00.954Z,44.06
2019-03-31T21:08:13.191Z,43.97
2019-03-31T21:09:23.117Z,43.95
2019-03-31T21:10:46.650Z,43.78
2019-03-31T21:11:56.825Z,43.78
2019-03-31T21:13:06.977Z,43.85
2019-03-31T21:14:17.128Z,43.57
2019-03-31T21:15:27.043Z,43.57
2019-03-31T21:16:37.234Z,44.13
2019-03-31T21:17:47.170Z,43.66
2019-03-31T21:18:57.322Z,44.04
2019-03-31T21:20:07.506Z,43.95
2019-03-31T21:21:17.678Z,43.85
2019-03-31T21:22:27.821Z,43.57
2019-03-31T21:23:37.976Z,43.95
2019-03-31T21:24:48.135Z,44.04
2019-03-31T21:25:58.298Z,43.85
2019-03-31T21:27:08.469Z,44.23
2019-03-31T21:28:18.644Z,43.95
2019-03-31T21:29:28.538Z,43.85
2019-03-31T21:30:38.777Z,44.33
2019-03-31T21:31:48.912Z,44.13
2019-03-31T21:32:59.059Z,45
2019-03-31T21:34:09.235Z,44.8
2019-03-31T21:35:19.286Z,44.61
2019-03-31T21:36:29.447Z,44.61
2019-03-31T21:37:39.600Z,44.61
2019-03-31T21:38:49.749Z,45
2019-03-31T21:39:59.908Z,44.8
2019-03-31T21:41:10.067Z,44.8
2019-03-31T21:42:21.986Z,44.61
2019-03-31T21:43:32.131Z,44.9
2019-03-31T21:44:42.322Z,45
2019-03-31T21:45:52.520Z,45
2019-03-31T21:47:02.664Z,45.09
2019-03-31T21:48:12.829Z,45.09
2019-03-31T21:49:22.966Z,45
2019-03-31T21:50:33.309Z,45.28
2019-03-31T21:51:43.667Z,45
2019-03-31T21:52:53.843Z,45.18
2019-03-31T21:54:04.005Z,45.37
2019-03-31T21:55:14.168Z,45.47
2019-03-31T21:56:24.318Z,45
2019-03-31T21:57:34.186Z,45.28
2019-03-31T21:58:44.379Z,45.37
2019-03-31T21:59:54.541Z,45.56
2019-03-31T22:01:04.709Z,45.64
2019-03-31T22:02:14.868Z,45.47
2019-03-31T22:03:25.004Z,45.37
2019-03-31T22:04:35.139Z,45.37
2019-03-31T22:05:45.365Z,45.47
2019-03-31T22:06:55.506Z,45.35
2019-03-31T22:08:06.595Z,45.83
2019-03-31T22:09:16.733Z,45.83
2019-03-31T22:10:26.914Z,45.45
2019-03-31T22:11:37.053Z,45.73
2019-03-31T22:12:47.372Z,45.54
2019-03-31T22:13:57.490Z,45.64
2019-03-31T22:15:07.618Z,46.2
2019-03-31T22:16:17.763Z,46.01
2019-03-31T22:17:27.893Z,45.83
2019-03-31T22:18:38.015Z,45.83
2019-03-31T22:19:48.120Z,46.11
2019-03-31T22:20:58.283Z,46.11
2019-03-31T22:22:08.414Z,45.73
2019-03-31T22:23:18.208Z,45.83
2019-03-31T22:24:28.352Z,45.73
2019-03-31T22:25:38.477Z,45.92
2019-03-31T22:26:48.664Z,45.45
2019-03-31T22:27:58.777Z,45.83
2019-03-31T22:29:08.907Z,45.92
2019-03-31T22:30:19.060Z,46.01
2019-03-31T22:31:29.200Z,46.11
2019-03-31T22:32:39.333Z,45.92
2019-03-31T22:33:49.464Z,46.01
2019-03-31T22:34:59.598Z,46.01
2019-03-31T22:36:09.480Z,45.92
2019-03-31T22:37:19.600Z,46.01
2019-03-31T22:38:29.738Z,46.59
2019-03-31T22:39:39.614Z,46.4
2019-03-31T22:40:49.811Z,46.4
2019-03-31T22:41:59.969Z,46.68
2019-03-31T22:43:10.601Z,46.59
2019-03-31T22:44:20.833Z,46.59
2019-03-31T22:45:30.959Z,46.68
2019-03-31T22:46:53.604Z,46.78
2019-03-31T22:48:04.324Z,46.49
2019-03-31T22:49:14.443Z,46.59
2019-03-31T22:50:24.559Z,46.49
2019-03-31T22:51:34.678Z,46.4
2019-03-31T22:52:44.819Z,46.59
2019-03-31T22:53:54.949Z,46.49
2019-03-31T22:55:05.085Z,46.49
2019-03-31T22:56:15.199Z,46.49
2019-03-31T22:57:25.074Z,46.78
2019-03-31T22:58:35.188Z,46.78
2019-03-31T22:59:45.305Z,46.59
2019-03-31T23:00:55.421Z,46.59
2019-03-31T23:02:05.572Z,46.59
2019-03-31T23:03:15.700Z,47.25
2019-03-31T23:04:25.830Z,46.97
2019-03-31T23:05:35.679Z,47.16
2019-03-31T23:06:45.792Z,46.68
2019-03-31T23:07:55.913Z,46.97
2019-03-31T23:09:06.105Z,47.06
2019-03-31T23:10:16.239Z,47.16
2019-03-31T23:11:26.351Z,46.78
2019-03-31T23:12:36.464Z,47.16
2019-03-31T23:13:46.558Z,47.25
2019-03-31T23:14:56.432Z,47.25
2019-03-31T23:16:06.792Z,47.61
2019-03-31T23:17:16.916Z,47.89
2019-03-31T23:18:27.048Z,47.99
2019-03-31T23:19:37.173Z,48.08
2019-03-31T23:20:47.280Z,47.99
2019-03-31T23:21:57.425Z,47.8
2019-03-31T23:23:07.752Z,48.27
2019-03-31T23:24:17.850Z,47.99
2019-03-31T23:25:27.956Z,48.46
2019-03-31T23:26:38.091Z,48.37
2019-03-31T23:27:48.209Z,48.37
2019-03-31T23:28:59.287Z,48.18
2019-03-31T23:30:09.391Z,48.37
2019-03-31T23:31:19.506Z,48.37
2019-03-31T23:32:29.623Z,48.21
2019-03-31T23:33:39.769Z,48.3
2019-03-31T23:34:49.867Z,48.58
2019-03-31T23:35:59.978Z,48.11
2019-03-31T23:37:10.283Z,48.39
2019-03-31T23:38:20.399Z,48.39
2019-03-31T23:39:30.517Z,48.49
2019-03-31T23:40:40.390Z,48.39
2019-03-31T23:41:50.515Z,48.49
2019-03-31T23:43:00.623Z,48.39
2019-03-31T23:44:10.716Z,48.37
2019-03-31T23:45:20.862Z,48.39
2019-03-31T23:46:30.962Z,48.37
2019-03-31T23:47:41.073Z,48.37
2019-03-31T23:48:51.265Z,48.37
2019-03-31T23:50:00.864Z,48.37
2019-03-31T23:51:10.984Z,48.37
2019-03-31T23:52:21.195Z,48.27
2019-03-31T23:53:31.319Z,48.37
2019-03-31T23:54:41.500Z,48.46
2019-03-31T23:55:51.356Z,48.56
2019-03-31T23:57:01.470Z,48.56
2019-03-31T23:58:11.588Z,48.56
2019-03-31T23:59:21.571Z,48.56
